Airfield :
LOGIN :

Register | Disclaimer

   EN    FR    IT 

 










Legend :    VFR   Marginal VFR   IFR   Intensive IFR   Very Intensive IFR
Visi :
Ceiling :
>= 8 km
>= 3000ft
5 to 8 km
1000 to 3000 ft
1500m to 5 km
500 to 1000 ft
800 to 1500m
200 to 500 ft
< 800m
< 200 ft
Symbols :   Thunderstorms  Fog  Heavy snow  Heavy precipitations  Wind > 20 kt
SIGMETs :     Misc.  Thunderstorms  Icing  Turbulence  Mountain Waves  Volcanic Ashes






- Airport Elevation : 47 ft
- IATA code : BDS


LIBR - Casale Arpt. Brindisi

CURRENT METAR :
  • 200250Z 30010KT CAVOK 10/04 Q1009

EXPIRED METARs :
  • 200220Z 30011KT CAVOK 10/05 Q1009
  • 200150Z 30013KT CAVOK 11/05 Q1009
  • 200120Z 29012KT CAVOK 10/05 Q1009
  • 200050Z 29013KT CAVOK 11/05 Q1009
  • 200020Z 28012KT CAVOK 11/05 Q1009
  • 192350Z 29012KT CAVOK 11/06 Q1010
  • 192320Z 34016KT CAVOK 14/05 Q1010
  • 192250Z 33015KT CAVOK 14/06 Q1010
  • 192220Z 33016KT 300V360 CAVOK 14/06 Q1010

TAF TAF LIBR
Valid from the 20 at 00:00 until the 21 at 00:00 UTC


192300Z 2000/2024 33018KT 9999 SCT030
BECMG 2006/2008 33008KT
BECMG 2012/2014 17012KT



MET'MAP, your aeronautical weather chart ! - Copyright ORBIFLY December 2007 - Disclaimer

ORBIFLY MET'MAP TEAM :

Programming & Development : Alexandra Zaïnal
Original concept : Baudouin d'Aumeries
Technical & hardware support : Manuel Goepfert
Assistance : Marc-Olivier Méhu




SOURCES & CREDITS :

   NOAA